createdAt,value
2023-02-27T00:02:12.550Z,4.19
2023-02-27T00:04:39.058Z,4.27
2023-02-27T00:07:05.623Z,4.55
2023-02-27T00:09:32.137Z,4.50
2023-02-27T00:11:58.866Z,4.49
2023-02-27T00:14:25.432Z,4.70
2023-02-27T00:16:51.969Z,4.63
2023-02-27T00:19:18.822Z,4.65
2023-02-27T00:21:45.483Z,4.60
2023-02-27T00:24:12.402Z,4.76
2023-02-27T00:26:39.032Z,4.75
2023-02-27T00:29:06.411Z,4.65
2023-02-27T00:31:33.158Z,4.48
2023-02-27T00:33:59.713Z,4.66
2023-02-27T00:36:26.930Z,4.64
2023-02-27T00:38:53.660Z,4.60
2023-02-27T00:41:20.156Z,4.40
2023-02-27T00:43:46.924Z,4.51
2023-02-27T00:46:13.588Z,4.55
2023-02-27T00:48:40.261Z,4.42
2023-02-27T00:51:06.808Z,4.23
2023-02-27T00:53:33.330Z,4.51
2023-02-27T00:56:00.099Z,4.29
2023-02-27T00:58:26.681Z,4.24
2023-02-27T01:00:53.378Z,4.14
2023-02-27T01:03:19.913Z,4.07
2023-02-27T01:05:46.716Z,4.13
2023-02-27T01:08:13.318Z,3.95
2023-02-27T01:10:40.953Z,3.95
2023-02-27T01:13:07.461Z,3.66
2023-02-27T01:15:34.324Z,3.70
2023-02-27T01:18:00.968Z,3.92
2023-02-27T01:20:27.587Z,3.73
2023-02-27T01:22:54.117Z,3.83
2023-02-27T01:25:20.664Z,3.94
2023-02-27T01:27:47.512Z,3.86
2023-02-27T01:30:15.812Z,3.88
2023-02-27T01:32:42.726Z,3.95
2023-02-27T01:35:09.713Z,3.91
2023-02-27T01:37:36.474Z,3.85
2023-02-27T01:40:04.410Z,3.96
2023-02-27T01:42:31.033Z,3.90
2023-02-27T01:45:09.637Z,3.91
2023-02-27T01:47:37.436Z,3.98
2023-02-27T01:50:04.355Z,4.03
2023-02-27T01:52:31.134Z,3.93
2023-02-27T01:54:57.749Z,4.05
2023-02-27T01:57:24.372Z,4.07
2023-02-27T01:59:51.129Z,3.93
2023-02-27T02:02:23.860Z,3.92
2023-02-27T02:04:50.508Z,3.98
2023-02-27T02:07:19.691Z,3.98
2023-02-27T02:09:51.876Z,3.78
2023-02-27T02:12:21.725Z,4.10
2023-02-27T02:14:48.192Z,3.95
2023-02-27T02:17:19.938Z,3.90
2023-02-27T02:20:22.017Z,3.83
2023-02-27T02:23:00.747Z,3.36
2023-02-27T02:25:56.052Z,3.56
2023-02-27T02:28:34.591Z,3.57
2023-02-27T02:31:18.782Z,3.69
2023-02-27T02:34:30.264Z,3.78
2023-02-27T02:37:17.250Z,3.76
2023-02-27T02:39:58.918Z,3.79
2023-02-27T02:42:34.222Z,3.08
2023-02-27T02:45:19.305Z,3.78
2023-02-27T02:48:20.746Z,3.76
2023-02-27T02:51:04.925Z,3.76
2023-02-27T02:53:39.477Z,3.84
2023-02-27T02:56:13.752Z,3.79
2023-02-27T02:59:04.399Z,3.31
2023-02-27T03:01:39.558Z,3.42
2023-02-27T03:04:18.503Z,3.78
2023-02-27T03:06:54.525Z,3.79
2023-02-27T03:09:29.190Z,3.45
2023-02-27T03:11:57.535Z,3.74
2023-02-27T03:14:47.291Z,3.80
2023-02-27T03:17:19.291Z,3.72
2023-02-27T03:19:57.215Z,3.88
2023-02-27T03:22:30.292Z,3.90
2023-02-27T03:24:59.257Z,3.82
2023-02-27T03:27:30.718Z,3.82
2023-02-27T03:30:03.983Z,3.83
2023-02-27T03:32:45.916Z,3.56
2023-02-27T03:35:12.787Z,3.49
2023-02-27T03:37:48.536Z,3.55
2023-02-27T03:40:45.499Z,3.54
2023-02-27T03:43:18.500Z,3.48
2023-02-27T03:45:55.702Z,3.54
2023-02-27T03:48:22.624Z,3.53
2023-02-27T03:50:49.417Z,3.43
2023-02-27T03:53:41.907Z,3.36
2023-02-27T03:56:09.237Z,3.04
2023-02-27T03:58:36.186Z,2.94
2023-02-27T04:01:03.253Z,2.58
2023-02-27T04:03:32.824Z,2.34
2023-02-27T04:06:19.453Z,2.59
2023-02-27T04:09:15.482Z,2.69
2023-02-27T04:11:56.421Z,3.00
2023-02-27T04:14:39.543Z,3.11
2023-02-27T04:17:21.619Z,3.04
2023-02-27T04:19:51.957Z,3.22
2023-02-27T04:22:27.200Z,3.24
2023-02-27T04:24:53.687Z,3.17
2023-02-27T04:27:40.558Z,3.15
2023-02-27T04:30:25.834Z,3.01
2023-02-27T04:33:13.158Z,3.08
2023-02-27T04:36:00.414Z,3.04
2023-02-27T04:38:39.414Z,3.02
2023-02-27T04:41:10.267Z,3.02
2023-02-27T04:43:39.384Z,2.86
2023-02-27T04:46:09.098Z,2.88
2023-02-27T04:48:41.084Z,2.55
2023-02-27T04:51:13.777Z,1.91
2023-02-27T04:53:49.545Z,1.59
2023-02-27T04:56:31.335Z,1.31
2023-02-27T04:59:09.575Z,1.93
2023-02-27T05:01:41.129Z,2.01
2023-02-27T05:04:10.749Z,2.28
2023-02-27T05:06:40.081Z,2.11
2023-02-27T05:09:14.432Z,2.40
2023-02-27T05:11:45.181Z,2.57
2023-02-27T05:14:36.286Z,2.70
2023-02-27T05:17:04.459Z,2.73
2023-02-27T05:19:32.408Z,2.76
2023-02-27T05:22:23.646Z,2.28
2023-02-27T05:25:06.351Z,2.30
2023-02-27T05:27:44.548Z,2.33
2023-02-27T05:30:22.255Z,2.53
2023-02-27T05:33:18.562Z,2.54
2023-02-27T05:36:01.260Z,2.35
2023-02-27T05:39:02.802Z,2.32
2023-02-27T05:41:41.830Z,1.97
2023-02-27T05:44:09.956Z,2.37
2023-02-27T05:46:39.342Z,2.43
2023-02-27T05:49:10.720Z,2.28
2023-02-27T05:51:38.247Z,2.27
2023-02-27T05:54:48.310Z,2.30
2023-02-27T05:57:19.947Z,2.13
2023-02-27T06:00:08.622Z,2.52
2023-02-27T06:02:35.196Z,2.40
2023-02-27T06:05:02.092Z,2.31
2023-02-27T06:07:31.232Z,2.35
2023-02-27T06:09:58.017Z,2.39
2023-02-27T06:12:25.343Z,2.29
2023-02-27T06:14:51.937Z,2.28
2023-02-27T06:17:18.822Z,2.38
2023-02-27T06:19:45.421Z,2.44
2023-02-27T06:22:11.968Z,2.58
2023-02-27T06:24:38.514Z,2.48
2023-02-27T06:27:05.285Z,2.49
2023-02-27T06:29:31.784Z,2.59
2023-02-27T06:31:58.381Z,2.72
2023-02-27T06:34:25.084Z,2.72
2023-02-27T06:36:51.834Z,2.82
2023-02-27T06:39:18.399Z,2.80
2023-02-27T06:41:44.908Z,2.83
2023-02-27T06:44:11.407Z,2.78
2023-02-27T06:46:38.077Z,2.86
2023-02-27T06:49:05.498Z,2.81
2023-02-27T06:51:32.735Z,2.94
2023-02-27T06:53:59.369Z,2.86
2023-02-27T06:56:26.256Z,2.53
2023-02-27T06:58:52.995Z,2.69
2023-02-27T07:01:19.726Z,2.65
2023-02-27T07:03:46.652Z,2.46
2023-02-27T07:06:13.454Z,1.49
2023-02-27T07:09:01.922Z,1.50
2023-02-27T07:11:26.480Z,0.62
2023-02-27T07:13:53.204Z,0.52
2023-02-27T07:16:19.868Z,1.04
2023-02-27T07:18:46.393Z,1.21
2023-02-27T07:21:15.229Z,2.42
2023-02-27T07:23:42.221Z,2.77
2023-02-27T07:26:08.978Z,3.07
2023-02-27T07:28:36.106Z,3.29
2023-02-27T07:31:02.733Z,3.43
2023-02-27T07:33:29.762Z,3.21
2023-02-27T07:35:56.311Z,3.54
2023-02-27T07:38:24.039Z,3.74
2023-02-27T07:40:50.698Z,4.00
2023-02-27T07:43:17.248Z,4.24
2023-02-27T07:45:45.253Z,4.34
2023-02-27T07:48:11.924Z,4.65
2023-02-27T07:50:38.491Z,4.81
2023-02-27T07:53:07.921Z,5.20
2023-02-27T07:55:34.549Z,5.51
2023-02-27T07:58:01.547Z,5.51
2023-02-27T08:00:28.162Z,5.17
2023-02-27T08:02:54.797Z,4.83
2023-02-27T08:05:21.400Z,4.42
2023-02-27T08:07:48.022Z,5.29
2023-02-27T08:10:16.638Z,5.55
2023-02-27T08:12:43.279Z,5.79
2023-02-27T08:15:10.153Z,6.21
2023-02-27T08:17:36.730Z,6.47
2023-02-27T08:20:05.144Z,5.64
2023-02-27T08:22:32.535Z,6.13
2023-02-27T08:24:59.210Z,6.32
2023-02-27T08:27:25.760Z,6.73
2023-02-27T08:29:52.279Z,6.37
2023-02-27T08:32:18.957Z,6.31
2023-02-27T08:34:45.771Z,6.34
2023-02-27T08:37:12.312Z,6.75
2023-02-27T08:39:38.863Z,6.40
2023-02-27T08:42:07.091Z,5.57
2023-02-27T08:44:34.076Z,6.51
2023-02-27T08:47:00.830Z,7.01
2023-02-27T08:49:27.685Z,7.59
2023-02-27T08:51:54.499Z,7.21
2023-02-27T08:54:21.391Z,6.23
2023-02-27T08:56:48.883Z,6.54
2023-02-27T08:59:15.791Z,7.57
2023-02-27T09:01:42.568Z,8.09
2023-02-27T09:04:09.838Z,7.85
2023-02-27T09:06:36.732Z,7.27
2023-02-27T09:09:04.136Z,8.05
2023-02-27T09:11:31.210Z,7.30
2023-02-27T09:13:58.887Z,8.16
2023-02-27T09:16:26.176Z,8.80
2023-02-27T09:18:53.058Z,9.27
2023-02-27T09:21:20.410Z,10.08
2023-02-27T09:23:46.956Z,10.51
2023-02-27T09:26:13.753Z,11.60
2023-02-27T09:28:40.334Z,12.03
2023-02-27T09:31:07.972Z,12.55
2023-02-27T09:33:35.911Z,12.55
2023-02-27T09:36:02.838Z,12.95
2023-02-27T09:38:29.638Z,13.40
2023-02-27T09:40:56.727Z,13.62
2023-02-27T09:43:31.080Z,12.05
2023-02-27T09:45:58.350Z,11.79
2023-02-27T09:48:34.145Z,11.22
2023-02-27T09:51:01.208Z,12.45
2023-02-27T09:53:35.946Z,12.51
2023-02-27T09:56:10.124Z,13.86
2023-02-27T09:58:46.061Z,17.47
2023-02-27T10:01:34.788Z,22.67
2023-02-27T10:04:18.421Z,27.15
2023-02-27T10:06:51.051Z,31.72
2023-02-27T10:09:36.431Z,35.39
2023-02-27T10:12:24.848Z,37.56
2023-02-27T10:14:55.504Z,36.92
2023-02-27T10:17:44.934Z,36.46
2023-02-27T10:20:20.634Z,37.12
2023-02-27T10:22:48.792Z,34.46
2023-02-27T10:25:30.716Z,35.64
2023-02-27T10:28:02.158Z,34.14
2023-02-27T10:30:32.878Z,33.64
2023-02-27T10:33:07.422Z,33.59
2023-02-27T10:35:37.290Z,34.16
2023-02-27T10:38:12.888Z,27.57
2023-02-27T10:40:40.455Z,28.70
2023-02-27T10:43:07.275Z,29.01
2023-02-27T10:45:35.640Z,31.65
2023-02-27T10:48:04.850Z,30.61
2023-02-27T10:50:36.058Z,32.89
2023-02-27T10:53:07.381Z,29.28
2023-02-27T10:55:38.255Z,25.68
2023-02-27T10:58:05.514Z,29.04
2023-02-27T11:00:46.132Z,32.33
2023-02-27T11:03:24.623Z,35.44
2023-02-27T11:06:06.053Z,36.17
2023-02-27T11:08:34.268Z,37.51
2023-02-27T11:11:02.929Z,39.69
2023-02-27T11:13:32.629Z,35.84
2023-02-27T11:16:03.075Z,39.26
2023-02-27T11:18:30.687Z,40.43
2023-02-27T11:21:09.035Z,40.34
2023-02-27T11:23:35.822Z,38.07
2023-02-27T11:26:18.022Z,38.45
2023-02-27T11:28:44.693Z,39.74
2023-02-27T11:31:21.542Z,38.03
2023-02-27T11:33:53.754Z,37.64
2023-02-27T11:36:23.732Z,39.93
2023-02-27T11:38:52.865Z,34.50
2023-02-27T11:41:19.610Z,32.16
2023-02-27T11:43:53.187Z,28.56
2023-02-27T11:46:47.765Z,28.45
2023-02-27T11:49:30.580Z,23.88
2023-02-27T11:52:20.390Z,20.30
2023-02-27T11:54:57.432Z,20.22
2023-02-27T11:57:33.742Z,26.51
2023-02-27T12:00:06.730Z,28.01
2023-02-27T12:02:48.139Z,24.79
2023-02-27T12:05:18.727Z,27.52
2023-02-27T12:07:51.667Z,29.92
2023-02-27T12:10:22.164Z,30.26
2023-02-27T12:12:56.609Z,29.10
2023-02-27T12:15:47.883Z,29.38
2023-02-27T12:18:24.721Z,32.03
2023-02-27T12:20:57.556Z,34.51
2023-02-27T12:23:29.130Z,32.53
2023-02-27T12:26:03.402Z,30.97
2023-02-27T12:28:42.147Z,28.03
2023-02-27T12:31:22.266Z,24.03
2023-02-27T12:34:01.694Z,21.28
2023-02-27T12:36:28.322Z,19.98
2023-02-27T12:38:55.109Z,16.96
2023-02-27T12:41:28.097Z,16.77
2023-02-27T12:44:21.994Z,15.47
2023-02-27T12:46:52.591Z,13.23
2023-02-27T12:49:30.939Z,13.79
2023-02-27T12:52:00.721Z,13.22
2023-02-27T12:54:39.392Z,13.70
2023-02-27T12:57:32.827Z,13.37
2023-02-27T13:00:08.272Z,12.77
2023-02-27T13:02:59.773Z,12.03
2023-02-27T13:05:38.289Z,12.09
2023-02-27T13:08:18.608Z,11.15
2023-02-27T13:10:48.162Z,10.81
2023-02-27T13:13:19.724Z,11.09
2023-02-27T13:16:00.649Z,10.93
2023-02-27T13:18:39.582Z,11.66
2023-02-27T13:21:20.831Z,11.74
2023-02-27T13:24:06.193Z,11.87
2023-02-27T13:27:01.968Z,10.99
2023-02-27T13:30:11.633Z,11.66
2023-02-27T13:32:52.341Z,11.21
2023-02-27T13:35:45.633Z,11.70
2023-02-27T13:38:42.538Z,12.29
2023-02-27T13:41:37.054Z,12.19
2023-02-27T13:44:16.135Z,11.94
2023-02-27T13:46:42.804Z,12.48
2023-02-27T13:49:20.092Z,12.23
2023-02-27T13:51:54.629Z,11.85
2023-02-27T13:54:24.225Z,11.64
2023-02-27T13:57:14.889Z,11.75
2023-02-27T13:59:44.300Z,10.73
2023-02-27T14:02:11.071Z,10.90
2023-02-27T14:04:52.059Z,10.97
2023-02-27T14:07:21.656Z,10.92
2023-02-27T14:09:50.780Z,11.69
2023-02-27T14:12:44.152Z,12.04
2023-02-27T14:15:17.817Z,12.30
2023-02-27T14:17:46.421Z,11.68
2023-02-27T14:20:12.933Z,11.51
2023-02-27T14:22:40.783Z,11.00
2023-02-27T14:25:10.286Z,11.07
2023-02-27T14:27:48.850Z,10.98
2023-02-27T14:30:38.189Z,10.65
2023-02-27T14:33:08.262Z,10.79
2023-02-27T14:35:36.108Z,11.10
2023-02-27T14:38:09.389Z,11.02
2023-02-27T14:40:40.916Z,10.66
2023-02-27T14:43:27.543Z,10.67
2023-02-27T14:45:54.668Z,10.69
2023-02-27T14:48:27.582Z,10.51
2023-02-27T14:50:54.632Z,10.77
2023-02-27T14:53:26.308Z,11.17
2023-02-27T14:55:55.189Z,11.28
2023-02-27T14:58:22.448Z,11.32
2023-02-27T15:00:58.477Z,11.17
2023-02-27T15:03:39.360Z,11.09
2023-02-27T15:06:34.029Z,11.50
2023-02-27T15:09:03.801Z,11.82
2023-02-27T15:11:30.969Z,11.19
2023-02-27T15:14:01.386Z,11.52
2023-02-27T15:16:34.418Z,11.26
2023-02-27T15:19:05.902Z,11.68
2023-02-27T15:21:39.265Z,11.27
2023-02-27T15:24:09.099Z,11.46
2023-02-27T15:26:38.829Z,11.81
2023-02-27T15:29:06.471Z,10.84
2023-02-27T15:31:33.604Z,10.78
2023-02-27T15:34:01.695Z,10.60
2023-02-27T15:36:31.021Z,10.46
2023-02-27T15:39:16.083Z,10.39
2023-02-27T15:41:48.664Z,10.39
2023-02-27T15:44:16.993Z,9.80
2023-02-27T15:46:44.776Z,9.86
2023-02-27T15:49:19.777Z,9.82
2023-02-27T15:51:47.643Z,9.67
2023-02-27T15:54:14.936Z,10.05
2023-02-27T15:56:42.136Z,10.09
2023-02-27T15:59:13.143Z,9.94
2023-02-27T16:01:39.902Z,9.99
2023-02-27T16:04:14.965Z,9.13
2023-02-27T16:06:48.413Z,9.08
2023-02-27T16:09:20.953Z,8.86
2023-02-27T16:11:47.499Z,8.59
2023-02-27T16:14:41.146Z,8.46
2023-02-27T16:17:24.490Z,7.88
2023-02-27T16:19:51.102Z,7.88
2023-02-27T16:22:19.922Z,8.16
2023-02-27T16:24:46.787Z,8.32
2023-02-27T16:27:16.569Z,8.44
2023-02-27T16:29:44.894Z,8.63
2023-02-27T16:32:30.153Z,8.89
2023-02-27T16:35:02.084Z,9.12
2023-02-27T16:37:37.105Z,8.79
2023-02-27T16:40:16.275Z,8.61
2023-02-27T16:42:44.509Z,8.79
2023-02-27T16:45:16.342Z,8.81
2023-02-27T16:47:43.132Z,8.77
2023-02-27T16:50:21.901Z,8.73
2023-02-27T16:52:48.517Z,8.56
2023-02-27T16:55:15.187Z,8.66
2023-02-27T16:57:41.716Z,8.75
2023-02-27T17:00:11.714Z,8.44
2023-02-27T17:02:38.771Z,8.62
2023-02-27T17:05:06.011Z,8.52
2023-02-27T17:07:32.810Z,8.48
2023-02-27T17:10:00.345Z,8.30
2023-02-27T17:12:27.368Z,8.34
2023-02-27T17:14:53.995Z,8.46
2023-02-27T17:17:20.575Z,8.56
2023-02-27T17:19:47.363Z,8.06
2023-02-27T17:22:15.180Z,8.27
2023-02-27T17:24:41.884Z,7.95
2023-02-27T17:27:09.399Z,8.20
2023-02-27T17:29:38.583Z,8.15
2023-02-27T17:32:05.511Z,8.13
2023-02-27T17:34:32.191Z,8.35
2023-02-27T17:36:58.932Z,8.34
2023-02-27T17:39:25.514Z,8.33
2023-02-27T17:41:53.188Z,8.10
2023-02-27T17:44:20.159Z,8.44
2023-02-27T17:46:46.695Z,8.05
2023-02-27T17:49:13.213Z,8.00
2023-02-27T17:51:40.055Z,7.88
2023-02-27T17:54:06.970Z,7.81
2023-02-27T17:56:36.739Z,7.78
2023-02-27T17:59:04.048Z,7.15
2023-02-27T18:01:30.671Z,7.60
2023-02-27T18:03:57.547Z,7.69
2023-02-27T18:06:24.829Z,7.72
2023-02-27T18:08:51.520Z,7.81
2023-02-27T18:11:19.641Z,7.65
2023-02-27T18:13:46.802Z,8.01
2023-02-27T18:16:13.879Z,8.20
2023-02-27T18:18:42.209Z,8.32
2023-02-27T18:21:20.736Z,8.48
2023-02-27T18:23:48.253Z,8.44
2023-02-27T18:26:32.543Z,8.51
2023-02-27T18:29:04.905Z,8.69
2023-02-27T18:31:37.749Z,8.65
2023-02-27T18:34:04.509Z,8.61
2023-02-27T18:36:32.219Z,8.84
2023-02-27T18:38:59.824Z,8.69
2023-02-27T18:41:26.545Z,8.67
2023-02-27T18:43:53.290Z,8.55
2023-02-27T18:46:20.154Z,8.56
2023-02-27T18:48:47.482Z,8.70
2023-02-27T18:51:15.541Z,8.51
2023-02-27T18:53:44.250Z,8.62
2023-02-27T18:56:11.619Z,8.66
2023-02-27T18:58:38.759Z,8.55
2023-02-27T19:01:07.283Z,8.66
2023-02-27T19:03:35.785Z,8.75
2023-02-27T19:06:02.696Z,8.54
2023-02-27T19:08:29.630Z,8.56
2023-02-27T19:10:57.000Z,8.66
2023-02-27T19:13:24.288Z,8.69
2023-02-27T19:15:51.666Z,8.39
2023-02-27T19:18:18.319Z,8.34
2023-02-27T19:20:44.900Z,8.63
2023-02-27T19:23:11.757Z,8.13
2023-02-27T19:25:38.347Z,8.18
2023-02-27T19:28:06.369Z,8.31
2023-02-27T19:30:33.072Z,8.45
2023-02-27T19:32:59.623Z,8.00
2023-02-27T19:35:26.238Z,8.18
2023-02-27T19:37:57.077Z,7.93
2023-02-27T19:40:25.393Z,7.83
2023-02-27T19:42:52.021Z,7.63
2023-02-27T19:45:18.549Z,7.70
2023-02-27T19:47:46.632Z,7.40
2023-02-27T19:50:13.292Z,7.42
2023-02-27T19:52:40.332Z,7.51
2023-02-27T19:55:07.502Z,7.37
2023-02-27T19:57:35.091Z,7.63
2023-02-27T20:00:01.681Z,7.55
2023-02-27T20:02:29.122Z,7.69
2023-02-27T20:04:55.661Z,7.74
2023-02-27T20:07:22.804Z,7.69
2023-02-27T20:09:49.817Z,7.72
2023-02-27T20:12:16.436Z,7.30
2023-02-27T20:14:43.009Z,7.60
2023-02-27T20:17:09.774Z,7.52
2023-02-27T20:19:36.738Z,7.55
2023-02-27T20:22:04.084Z,7.53
2023-02-27T20:24:30.806Z,7.04
2023-02-27T20:26:59.207Z,7.15
2023-02-27T20:29:27.092Z,6.94
2023-02-27T20:31:55.443Z,6.94
2023-02-27T20:34:24.789Z,6.97
2023-02-27T20:36:52.208Z,6.53
2023-02-27T20:39:19.678Z,6.62
2023-02-27T20:41:46.666Z,6.68
2023-02-27T20:44:13.421Z,6.59
2023-02-27T20:46:41.482Z,6.76
2023-02-27T20:49:10.184Z,6.52
2023-02-27T20:51:38.524Z,6.48
2023-02-27T20:54:07.812Z,6.80
2023-02-27T20:56:41.196Z,6.37
2023-02-27T20:59:10.064Z,6.60
2023-02-27T21:01:38.357Z,6.58
2023-02-27T21:04:05.382Z,6.69
2023-02-27T21:06:32.173Z,6.56
2023-02-27T21:09:05.267Z,6.73
2023-02-27T21:11:33.266Z,6.71
2023-02-27T21:14:04.095Z,6.39
2023-02-27T21:16:30.633Z,5.97
2023-02-27T21:18:57.149Z,6.50
2023-02-27T21:21:29.452Z,6.43
2023-02-27T21:23:56.930Z,6.39
2023-02-27T21:26:26.414Z,6.49
2023-02-27T21:28:58.454Z,6.23
2023-02-27T21:31:26.837Z,6.37
2023-02-27T21:33:54.032Z,6.52
2023-02-27T21:36:28.675Z,6.37
2023-02-27T21:38:59.836Z,6.14
2023-02-27T21:41:28.009Z,6.43
2023-02-27T21:43:59.320Z,6.29
2023-02-27T21:46:26.141Z,6.29
2023-02-27T21:48:52.772Z,6.34
2023-02-27T21:51:32.972Z,6.32
2023-02-27T21:54:01.768Z,6.30
2023-02-27T21:56:29.744Z,6.30
2023-02-27T21:58:59.900Z,6.20
2023-02-27T22:01:26.511Z,6.12
2023-02-27T22:03:54.022Z,6.18
2023-02-27T22:06:22.106Z,6.25
2023-02-27T22:08:52.862Z,6.16
2023-02-27T22:11:19.394Z,6.02
2023-02-27T22:13:46.151Z,6.17
2023-02-27T22:16:13.107Z,6.06
2023-02-27T22:18:40.887Z,5.73
2023-02-27T22:21:09.817Z,5.72
2023-02-27T22:23:37.875Z,5.76
2023-02-27T22:26:07.457Z,5.63
2023-02-27T22:28:35.215Z,5.08
2023-02-27T22:31:10.860Z,5.66
2023-02-27T22:33:38.703Z,5.58
2023-02-27T22:36:10.012Z,5.37
2023-02-27T22:38:36.947Z,5.42
2023-02-27T22:41:15.454Z,5.10
2023-02-27T22:43:44.615Z,5.42
2023-02-27T22:46:13.221Z,5.21
2023-02-27T22:48:40.258Z,5.06
2023-02-27T22:51:12.531Z,5.13
2023-02-27T22:53:39.938Z,5.02
2023-02-27T22:56:16.606Z,5.10
2023-02-27T22:58:44.699Z,4.95
2023-02-27T23:01:13.726Z,4.46
2023-02-27T23:03:42.838Z,4.64
2023-02-27T23:06:13.087Z,4.56
2023-02-27T23:08:40.058Z,4.38
2023-02-27T23:11:06.957Z,4.40
2023-02-27T23:13:33.633Z,4.50
2023-02-27T23:16:01.137Z,4.31
2023-02-27T23:18:28.358Z,4.30
2023-02-27T23:20:54.926Z,4.33
2023-02-27T23:23:21.515Z,4.21
2023-02-27T23:25:48.578Z,4.53
2023-02-27T23:28:15.325Z,4.61
2023-02-27T23:30:42.896Z,4.49
2023-02-27T23:33:09.445Z,4.44
2023-02-27T23:35:36.056Z,4.67
2023-02-27T23:38:03.486Z,4.74
2023-02-27T23:40:30.234Z,4.88
2023-02-27T23:42:56.802Z,4.62
2023-02-27T23:45:23.484Z,4.62
2023-02-27T23:47:54.185Z,4.74
2023-02-27T23:50:23.257Z,4.78
2023-02-27T23:52:50.913Z,4.95
2023-02-27T23:55:19.086Z,4.82
2023-02-27T23:57:45.886Z,4.25
